Time,TemperatureF,DewpointF,PressureIn,WindDirection,WindDirectionDegrees,WindSpeedMPH,WindSpeedGustMPH,Humidity,HourlyPrecipIn,Conditions,Clouds,dailyrainin,SoftwareType,DateUTC
2013-01-14 00:00:00,56.8,56.8,28.87,SE,135,9.2,9.2,100,0.06,RA,SKC,0.01,WeatherDisplay:10.37,2013-01-14 05:00:00,
2013-01-14 00:01:00,56.8,56.8,28.86,SE,135,9.2,9.2,100,0.06,RA,SKC,0.01,WeatherDisplay:10.37,2013-01-14 05:01:00,
2013-01-14 00:03:00,56.8,56.8,28.87,SE,135,4.6,4.6,100,0.06,RA,SKC,0.01,WeatherDisplay:10.37,2013-01-14 05:03:00,
2013-01-14 00:04:00,56.8,56.8,28.86,SE,135,4.6,4.6,100,0.06,RA,SKC,0.01,WeatherDisplay:10.37,2013-01-14 05:04:00,
2013-01-14 00:09:00,56.8,56.8,28.87,South,180,8.1,8.1,100,0.06,RA,SKC,0.01,WeatherDisplay:10.37,2013-01-14 05:09:00,
2013-01-14 00:14:00,56.8,56.8,28.87,South,180,5.8,0.0,100,0.05,CLR,SKC,0.01,WeatherDisplay:10.37,2013-01-14 05:14:00,
2013-01-14 00:19:00,57.0,57.0,28.88,West,270,6.9,6.9,100,0.05,CLR,SKC,0.01,WeatherDisplay:10.37,2013-01-14 05:19:00,
2013-01-14 00:24:00,57.0,57.0,28.88,South,180,3.5,3.5,100,0.04,CLR,SKC,0.01,WeatherDisplay:10.37,2013-01-14 05:24:00,
2013-01-14 00:29:00,57.0,57.0,28.88,SE,135,5.8,5.8,100,0.04,CLR,SKC,0.01,WeatherDisplay:10.37,2013-01-14 05:29:00,
2013-01-14 00:34:00,57.0,57.0,28.88,South,180,4.6,4.6,100,0.02,CLR,SKC,0.01,WeatherDisplay:10.37,2013-01-14 05:34:00,
2013-01-14 00:39:00,57.0,57.0,28.87,SSE,158,5.8,5.8,100,0.02,CLR,SKC,0.01,WeatherDisplay:10.37,2013-01-14 05:39:00,
2013-01-14 00:44:00,57.0,57.0,28.87,NNW,338,3.5,0.0,100,0.02,CLR,SKC,0.01,WeatherDisplay:10.37,2013-01-14 05:44:00,
2013-01-14 00:49:00,57.0,57.0,28.87,South,180,5.8,5.8,100,0.01,CLR,SKC,0.01,WeatherDisplay:10.37,2013-01-14 05:49:00,
2013-01-14 00:54:00,57.0,57.0,28.87,South,180,15.0,15.0,100,0.02,RA,SKC,0.02,WeatherDisplay:10.37,2013-01-14 05:54:00,
2013-01-14 00:59:00,57.0,57.0,28.88,SE,135,8.1,8.1,100,0.02,RA,SKC,0.02,WeatherDisplay:10.37,2013-01-14 05:59:00,
2013-01-14 01:04:00,57.0,57.0,28.88,West,270,4.6,4.6,100,0.01,,SKC,0.02,WeatherDisplay:10.37,2013-01-14 06:04:00,
2013-01-14 01:09:00,57.0,57.0,28.88,East,90,4.6,4.6,100,0.01,CLR,SKC,0.02,WeatherDisplay:10.37,2013-01-14 06:09:00,
2013-01-14 01:14:00,57.0,57.0,28.88,South,180,8.1,8.1,100,0.01,CLR,SKC,0.02,WeatherDisplay:10.37,2013-01-14 06:14:00,
2013-01-14 01:19:00,57.0,57.0,28.89,NW,315,4.6,4.6,100,0.01,CLR,SKC,0.02,WeatherDisplay:10.37,2013-01-14 06:19:00,
2013-01-14 01:24:00,57.0,57.0,28.88,SE,135,3.5,3.5,100,0.01,CLR,SKC,0.02,WeatherDisplay:10.37,2013-01-14 06:24:00,
2013-01-14 01:29:00,56.8,56.8,28.88,SE,135,4.6,4.6,100,0.01,CLR,SKC,0.02,WeatherDisplay:10.37,2013-01-14 06:29:00,
2013-01-14 01:34:00,56.8,56.8,28.88,South,180,5.8,5.8,100,0.01,CLR,SKC,0.02,WeatherDisplay:10.37,2013-01-14 06:34:00,
2013-01-14 01:39:00,57.6,57.6,28.89,South,180,5.8,5.8,100,0.01,CLR,SKC,0.02,WeatherDisplay:10.37,2013-01-14 06:39:00,
2013-01-14 01:44:00,56.8,56.8,28.89,South,180,5.8,5.8,100,0.01,CLR,SKC,0.02,WeatherDisplay:10.37,2013-01-14 06:44:00,
2013-01-14 01:49:00,57.0,57.0,28.89,NW,315,4.6,4.6,100,0.01,CLR,SKC,0.02,WeatherDisplay:10.37,2013-01-14 06:49:00,
2013-01-14 01:54:00,56.8,56.8,28.91,West,270,10.4,10.4,100,0.00,CLR,SKC,0.02,WeatherDisplay:10.37,2013-01-14 06:54:00,
2013-01-14 01:59:00,53.6,53.6,28.92,NW,315,28.8,28.8,100,0.00,CLR,SKC,0.02,WeatherDisplay:10.37,2013-01-14 06:59:00,
2013-01-14 02:04:00,54.1,54.1,28.92,NW,315,19.6,19.6,100,0.00,CLR,SKC,0.02,WeatherDisplay:10.37,2013-01-14 07:04:00,
2013-01-14 02:10:00,49.1,49.1,28.94,West,270,30.4,30.4,100,0.01,RA,SKC,0.04,WeatherDisplay:10.37,2013-01-14 07:10:00,
2013-01-14 02:15:00,47.7,47.7,28.95,West,270,28.8,28.8,100,0.01,RA,SKC,0.04,WeatherDisplay:10.37,2013-01-14 07:15:00,
2013-01-14 02:20:00,46.6,46.6,28.96,NNE,15,28.8,28.8,100,0.01,,SKC,0.04,WeatherDisplay:10.37,2013-01-14 07:20:00,
2013-01-14 02:25:00,45.3,45.3,28.97,West,270,32.2,32.2,100,0.01,CLR,SKC,0.04,WeatherDisplay:10.37,2013-01-14 07:25:00,
2013-01-14 02:30:00,44.8,44.8,28.98,NW,315,23.0,23.0,100,0.01,CLR,SKC,0.04,WeatherDisplay:10.37,2013-01-14 07:30:00,
2013-01-14 02:35:00,44.2,44.2,28.98,North,0,29.9,29.9,100,0.01,CLR,SKC,0.04,WeatherDisplay:10.37,2013-01-14 07:35:00,
2013-01-14 02:40:00,43.5,43.5,28.99,West,270,23.0,23.0,100,0.01,CLR,SKC,0.04,WeatherDisplay:10.37,2013-01-14 07:40:00,
2013-01-14 02:45:00,43.0,43.0,28.98,NNE,14,16.1,16.1,100,0.01,CLR,SKC,0.04,WeatherDisplay:10.37,2013-01-14 07:45:00,
2013-01-14 02:50:00,42.4,42.4,28.99,West,270,24.2,24.2,100,0.01,CLR,SKC,0.04,WeatherDisplay:10.37,2013-01-14 07:50:00,
2013-01-14 02:55:00,42.1,42.1,29.00,NW,315,27.6,27.6,100,0.02,RA,SKC,0.05,WeatherDisplay:10.37,2013-01-14 07:55:00,
2013-01-14 03:00:00,41.9,41.9,29.01,West,270,18.4,18.4,100,0.02,RA,SKC,0.05,WeatherDisplay:10.37,2013-01-14 08:00:00,
2013-01-14 03:05:00,41.9,41.9,29.02,West,270,17.3,17.3,100,0.02,,SKC,0.05,WeatherDisplay:10.37,2013-01-14 08:05:00,
2013-01-14 03:10:00,41.5,41.5,29.02,NNW,338,23.0,23.0,100,0.02,RA,SKC,0.06,WeatherDisplay:10.37,2013-01-14 08:10:00,
2013-01-14 03:15:00,41.4,41.4,29.02,NW,315,19.6,19.6,100,0.02,RA,SKC,0.06,WeatherDisplay:10.37,2013-01-14 08:15:00,
2013-01-14 03:20:00,41.4,41.4,29.03,West,270,12.7,12.7,100,0.02,,SKC,0.06,WeatherDisplay:10.37,2013-01-14 08:20:00,
2013-01-14 03:25:00,41.2,41.2,29.02,WNW,292,10.4,10.4,100,0.02,CLR,SKC,0.06,WeatherDisplay:10.37,2013-01-14 08:25:00,
2013-01-14 03:30:00,41.2,41.2,29.03,NW,315,8.1,8.1,100,0.02,CLR,SKC,0.06,WeatherDisplay:10.37,2013-01-14 08:30:00,
2013-01-14 03:35:00,41.2,41.2,29.03,NNE,13,9.2,9.2,100,0.02,CLR,SKC,0.06,WeatherDisplay:10.37,2013-01-14 08:35:00,
2013-01-14 03:40:00,41.2,41.2,29.02,NW,315,9.2,9.2,100,0.02,CLR,SKC,0.06,WeatherDisplay:10.37,2013-01-14 08:40:00,
2013-01-14 03:45:00,41.0,41.0,29.02,NW,315,15.0,15.0,100,0.02,CLR,SKC,0.06,WeatherDisplay:10.37,2013-01-14 08:45:00,
2013-01-14 03:50:00,41.0,41.0,29.02,NW,315,11.5,11.5,100,0.02,CLR,SKC,0.06,WeatherDisplay:10.37,2013-01-14 08:50:00,
2013-01-14 03:55:00,41.0,41.0,29.03,NW,315,10.4,10.4,100,0.01,CLR,SKC,0.06,WeatherDisplay:10.37,2013-01-14 08:55:00,
2013-01-14 04:00:00,41.0,41.0,29.03,NW,315,8.1,8.1,100,0.01,CLR,SKC,0.06,WeatherDisplay:10.37,2013-01-14 09:00:00,
2013-01-14 04:06:00,41.0,41.0,29.03,NW,315,5.8,5.8,100,0.01,CLR,SKC,0.06,WeatherDisplay:10.37,2013-01-14 09:06:00,
2013-01-14 04:11:00,41.0,41.0,29.03,West,270,9.2,9.2,100,0.00,,SKC,0.06,WeatherDisplay:10.37,2013-01-14 09:11:00,
2013-01-14 04:16:00,41.0,41.0,29.03,North,0,8.1,8.1,100,0.00,CLR,SKC,0.06,WeatherDisplay:10.37,2013-01-14 09:16:00,
2013-01-14 04:21:00,41.0,41.0,29.03,NNE,12,2.3,0.0,100,0.00,CLR,SKC,0.06,WeatherDisplay:10.37,2013-01-14 09:21:00,
2013-01-14 04:26:00,41.0,41.0,29.03,NE,45,3.5,0.0,100,0.00,,SKC,0.06,WeatherDisplay:10.37,2013-01-14 09:26:00,
2013-01-14 04:31:00,40.8,40.8,29.03,NW,315,2.3,0.0,100,0.00,,SKC,0.06,WeatherDisplay:10.37,2013-01-14 09:31:00,
2013-01-14 04:36:00,40.8,40.8,29.04,North,0,1.2,0.0,100,0.00,,SKC,0.06,WeatherDisplay:10.37,2013-01-14 09:36:00,
2013-01-14 04:41:00,40.8,40.8,29.04,NW,315,3.5,3.5,100,0.00,,SKC,0.06,WeatherDisplay:10.37,2013-01-14 09:41:00,
2013-01-14 04:46:00,40.8,40.8,29.05,North,6,1.2,0.0,100,0.00,,SKC,0.06,WeatherDisplay:10.37,2013-01-14 09:46:00,
2013-01-14 04:51:00,40.6,40.6,29.05,NW,315,5.8,5.8,100,0.00,,SKC,0.06,WeatherDisplay:10.37,2013-01-14 09:51:00,
2013-01-14 04:56:00,40.6,40.6,29.06,NW,315,8.1,8.1,100,0.00,,SKC,0.06,WeatherDisplay:10.37,2013-01-14 09:56:00,
2013-01-14 05:01:00,40.5,40.5,29.06,NW,315,8.1,8.1,100,0.00,,SKC,0.06,WeatherDisplay:10.37,2013-01-14 10:01:00,
2013-01-14 05:06:00,40.5,40.5,29.06,NW,315,4.6,4.6,100,0.00,,SKC,0.06,WeatherDisplay:10.37,2013-01-14 10:06:00,
2013-01-14 05:11:00,40.5,40.5,29.06,North,0,1.2,0.0,100,0.00,,SKC,0.06,WeatherDisplay:10.37,2013-01-14 10:11:00,
2013-01-14 05:16:00,40.5,40.5,29.06,North,0,1.2,0.0,100,0.00,,SKC,0.06,WeatherDisplay:10.37,2013-01-14 10:16:00,
2013-01-14 05:21:00,40.3,40.3,29.07,NNE,14,5.8,5.8,100,0.00,,SKC,0.06,WeatherDisplay:10.37,2013-01-14 10:21:00,
2013-01-14 05:26:00,40.3,40.3,29.07,NNE,14,6.9,6.9,100,0.00,,SKC,0.06,WeatherDisplay:10.37,2013-01-14 10:26:00,
2013-01-14 05:31:00,40.3,40.3,29.07,NW,315,5.8,5.8,100,0.00,,SKC,0.06,WeatherDisplay:10.37,2013-01-14 10:31:00,
2013-01-14 05:36:00,40.3,40.3,29.08,North,0,3.5,0.0,100,0.00,,SKC,0.06,WeatherDisplay:10.37,2013-01-14 10:36:00,
2013-01-14 05:41:00,40.3,40.3,29.08,North,0,2.3,2.3,100,0.00,,SKC,0.06,WeatherDisplay:10.37,2013-01-14 10:41:00,
2013-01-14 05:46:00,40.3,40.3,29.08,NW,315,3.5,3.5,100,0.00,,SKC,0.06,WeatherDisplay:10.37,2013-01-14 10:46:00,
2013-01-14 05:51:00,40.3,40.3,29.09,NW,315,10.4,10.4,100,0.00,,SKC,0.06,WeatherDisplay:10.37,2013-01-14 10:51:00,
2013-01-14 05:56:00,40.1,40.1,29.10,NW,315,8.1,8.1,100,0.00,,SKC,0.06,WeatherDisplay:10.37,2013-01-14 10:56:00,
2013-01-14 06:01:00,40.1,40.1,29.10,NW,315,4.6,4.6,100,0.00,CLR,SKC,0.06,WeatherDisplay:10.37,2013-01-14 11:01:00,
2013-01-14 06:06:00,40.1,40.1,29.10,NW,315,3.5,3.5,100,0.00,,SKC,0.06,WeatherDisplay:10.37,2013-01-14 11:06:00,
2013-01-14 06:11:00,40.1,40.1,29.10,West,270,9.2,9.2,100,0.00,,SKC,0.06,WeatherDisplay:10.37,2013-01-14 11:11:00,
2013-01-14 06:16:00,40.1,40.1,29.11,NNE,14,10.4,10.4,100,0.00,CLR,SKC,0.06,WeatherDisplay:10.37,2013-01-14 11:16:00,
2013-01-14 06:21:00,40.1,40.1,29.11,West,270,5.8,5.8,100,0.00,CLR,SKC,0.06,WeatherDisplay:10.37,2013-01-14 11:21:00,
2013-01-14 06:26:00,39.9,39.9,29.12,West,270,5.8,5.8,100,0.00,CLR,SKC,0.06,WeatherDisplay:10.37,2013-01-14 11:26:00,
2013-01-14 06:31:00,39.7,39.7,29.12,NW,315,12.7,12.7,100,0.00,CLR,SKC,0.06,WeatherDisplay:10.37,2013-01-14 11:31:00,
2013-01-14 06:36:00,39.7,39.7,29.13,NW,315,11.5,11.5,100,0.00,CLR,SKC,0.06,WeatherDisplay:10.37,2013-01-14 11:36:00,
2013-01-14 06:41:00,39.7,39.7,29.13,NW,315,10.4,10.4,100,0.00,CLR,SKC,0.06,WeatherDisplay:10.37,2013-01-14 11:41:00,
2013-01-14 06:46:00,39.6,39.6,29.13,NW,315,10.4,10.4,100,0.00,CLR,SKC,0.06,WeatherDisplay:10.37,2013-01-14 11:46:00,
2013-01-14 06:51:00,39.4,39.4,29.13,North,5,10.4,10.4,100,0.00,CLR,SKC,0.06,WeatherDisplay:10.37,2013-01-14 11:51:00,
2013-01-14 06:57:00,39.2,39.2,29.14,NW,315,9.2,9.2,100,0.00,CLR,SKC,0.06,WeatherDisplay:10.37,2013-01-14 11:57:00,
2013-01-14 07:02:00,39.2,39.2,29.15,North,0,4.6,4.6,100,0.00,,SKC,0.06,WeatherDisplay:10.37,2013-01-14 12:02:00,
2013-01-14 07:07:00,39.2,39.2,29.15,North,0,4.6,4.6,100,0.00,,SKC,0.06,WeatherDisplay:10.37,2013-01-14 12:07:00,
2013-01-14 07:12:00,39.0,39.0,29.15,NW,315,4.6,4.6,100,0.00,,SKC,0.06,WeatherDisplay:10.37,2013-01-14 12:12:00,
2013-01-14 07:17:00,39.0,39.0,29.15,North,0,10.4,10.4,100,0.00,,SKC,0.06,WeatherDisplay:10.37,2013-01-14 12:17:00,
2013-01-14 07:22:00,38.8,38.8,29.16,North,0,8.1,8.1,100,0.00,CLR,SKC,0.06,WeatherDisplay:10.37,2013-01-14 12:22:00,
2013-01-14 07:27:00,38.8,38.8,29.16,NW,315,6.9,6.9,100,0.00,CLR,SKC,0.06,WeatherDisplay:10.37,2013-01-14 12:27:00,
2013-01-14 07:32:00,38.7,38.7,29.16,NNE,13,8.1,8.1,100,0.00,CLR,SKC,0.06,WeatherDisplay:10.37,2013-01-14 12:32:00,
2013-01-14 07:37:00,38.5,38.5,29.17,NNE,14,8.1,8.1,100,0.00,,SKC,0.06,WeatherDisplay:10.37,2013-01-14 12:37:00,
2013-01-14 07:42:00,38.5,38.5,29.18,NW,315,6.9,6.9,100,0.00,,SKC,0.06,WeatherDisplay:10.37,2013-01-14 12:42:00,
2013-01-14 07:47:00,38.3,38.3,29.18,West,270,10.4,10.4,100,0.00,,SKC,0.06,WeatherDisplay:10.37,2013-01-14 12:47:00,
2013-01-14 07:52:00,38.3,38.0,29.18,NNE,14,10.4,10.4,99,0.00,CLR,SKC,0.06,WeatherDisplay:10.37,2013-01-14 12:52:00,
2013-01-14 07:57:00,38.1,37.9,29.18,NW,315,5.8,5.8,99,0.00,CLR,SKC,0.06,WeatherDisplay:10.37,2013-01-14 12:57:00,
2013-01-14 08:02:00,38.1,38.1,29.18,NW,315,4.6,4.6,100,0.00,,SKC,0.06,WeatherDisplay:10.37,2013-01-14 13:02:00,
2013-01-14 08:07:00,38.1,38.1,29.19,NW,315,4.6,4.6,100,0.00,,SKC,0.06,WeatherDisplay:10.37,2013-01-14 13:07:00,
2013-01-14 08:12:00,37.9,37.4,29.19,NW,315,5.8,5.8,98,0.00,CLR,SKC,0.06,WeatherDisplay:10.37,2013-01-14 13:12:00,
2013-01-14 08:17:00,37.9,37.4,29.20,NW,315,8.1,8.1,98,0.00,CLR,SKC,0.06,WeatherDisplay:10.37,2013-01-14 13:17:00,
2013-01-14 08:22:00,37.9,36.9,29.20,West,270,5.8,5.8,96,0.00,CLR,SKC,0.06,WeatherDisplay:10.37,2013-01-14 13:22:00,
2013-01-14 08:27:00,37.9,36.9,29.20,North,0,3.5,3.5,96,0.00,CLR,SKC,0.06,WeatherDisplay:10.37,2013-01-14 13:27:00,
2013-01-14 08:32:00,37.9,36.9,29.20,NW,315,3.5,3.5,96,0.00,CLR,SKC,0.06,WeatherDisplay:10.37,2013-01-14 13:32:00,
2013-01-14 08:37:00,37.9,36.6,29.20,NW,315,5.8,5.8,95,0.00,CLR,SKC,0.06,WeatherDisplay:10.37,2013-01-14 13:37:00,
2013-01-14 08:42:00,37.9,36.4,29.21,NW,315,4.6,4.6,94,0.00,CLR,SKC,0.06,WeatherDisplay:10.37,2013-01-14 13:42:00,
2013-01-14 08:47:00,38.1,36.5,29.21,NW,315,3.5,3.5,94,0.00,CLR,SKC,0.06,WeatherDisplay:10.37,2013-01-14 13:47:00,
2013-01-14 08:51:00,38.1,35.7,29.21,NW,315,5.8,5.8,91,0.00,CLR,SKC,0.06,WeatherDisplay:10.37,2013-01-14 13:51:00,
2013-01-14 08:56:00,38.3,35.9,29.21,NW,315,3.5,3.5,91,0.00,CLR,SKC,0.06,WeatherDisplay:10.37,2013-01-14 13:56:00,
2013-01-14 09:01:00,38.3,35.6,29.21,NW,315,5.8,5.8,90,0.00,CLR,SKC,0.06,WeatherDisplay:10.37,2013-01-14 14:01:00,
2013-01-14 09:06:00,38.3,35.6,29.21,NW,315,5.8,5.8,90,0.00,CLR,SKC,0.06,WeatherDisplay:10.37,2013-01-14 14:06:00,
2013-01-14 09:11:00,38.5,35.8,29.22,NW,315,4.6,4.6,90,0.00,CLR,SKC,0.06,WeatherDisplay:10.37,2013-01-14 14:11:00,
2013-01-14 09:16:00,38.5,35.5,29.22,NNE,14,6.9,6.9,89,0.00,CLR,SKC,0.06,WeatherDisplay:10.37,2013-01-14 14:16:00,
2013-01-14 09:21:00,38.5,35.2,29.22,NNE,14,9.2,9.2,88,0.00,CLR,SKC,0.06,WeatherDisplay:10.37,2013-01-14 14:21:00,
2013-01-14 09:26:00,38.7,35.7,29.23,NW,315,4.6,4.6,89,0.00,CLR,SKC,0.06,WeatherDisplay:10.37,2013-01-14 14:26:00,
2013-01-14 09:31:00,38.7,35.4,29.23,NW,315,8.1,8.1,88,0.00,CLR,SKC,0.06,WeatherDisplay:10.37,2013-01-14 14:31:00,
2013-01-14 09:36:00,38.5,34.9,29.23,NW,315,8.1,8.1,87,0.00,CLR,SKC,0.06,WeatherDisplay:10.37,2013-01-14 14:36:00,
2013-01-14 09:41:00,38.7,35.1,29.24,NW,315,8.1,8.1,87,0.00,CLR,SKC,0.06,WeatherDisplay:10.37,2013-01-14 14:41:00,
2013-01-14 09:46:00,38.5,35.2,29.24,West,270,12.7,12.7,88,0.00,CLR,SKC,0.06,WeatherDisplay:10.37,2013-01-14 14:46:00,
2013-01-14 09:51:00,38.5,35.2,29.24,South,180,10.4,10.4,88,0.00,CLR,SKC,0.06,WeatherDisplay:10.37,2013-01-14 14:51:00,
2013-01-14 09:56:00,38.3,35.1,29.24,NW,315,9.2,9.2,88,0.00,CLR,SKC,0.06,WeatherDisplay:10.37,2013-01-14 14:56:00,
2013-01-14 10:01:00,38.3,34.8,29.24,North,1,10.4,10.4,87,0.00,CLR,SKC,0.06,WeatherDisplay:10.37,2013-01-14 15:01:00,
2013-01-14 10:06:00,38.5,34.7,29.25,North,0,9.2,9.2,86,0.00,CLR,SKC,0.06,WeatherDisplay:10.37,2013-01-14 15:06:00,
2013-01-14 10:11:00,38.7,34.5,29.25,NW,315,9.2,9.2,85,0.00,CLR,SKC,0.06,WeatherDisplay:10.37,2013-01-14 15:11:00,
2013-01-14 10:16:00,38.8,34.7,29.24,North,0,5.8,5.8,85,0.00,CLR,SKC,0.06,WeatherDisplay:10.37,2013-01-14 15:16:00,
2013-01-14 10:21:00,38.8,33.8,29.24,North,0,11.5,11.5,82,0.00,CLR,SKC,0.06,WeatherDisplay:10.37,2013-01-14 15:21:00,
2013-01-14 10:26:00,38.8,33.8,29.24,North,0,8.1,8.1,82,0.00,CLR,SKC,0.06,WeatherDisplay:10.37,2013-01-14 15:26:00,
2013-01-14 10:31:00,39.2,33.9,29.24,NNE,15,6.9,6.9,81,0.00,CLR,SKC,0.06,WeatherDisplay:10.37,2013-01-14 15:31:00,
2013-01-14 10:36:00,40.8,35.1,29.24,NW,315,6.9,6.9,80,0.00,CLR,SKC,0.06,WeatherDisplay:10.37,2013-01-14 15:36:00,
2013-01-14 10:41:00,40.5,34.8,29.24,West,270,6.9,6.9,80,0.00,CLR,SKC,0.06,WeatherDisplay:10.37,2013-01-14 15:41:00,
2013-01-14 10:46:00,39.6,33.9,29.24,NNW,338,8.1,8.1,80,0.00,CLR,SKC,0.06,WeatherDisplay:10.37,2013-01-14 15:46:00,
2013-01-14 10:51:00,39.4,33.4,29.24,NW,315,8.1,8.1,79,0.00,CLR,SKC,0.06,WeatherDisplay:10.37,2013-01-14 15:51:00,
2013-01-14 10:56:00,39.4,33.7,29.24,NNE,14,5.8,5.8,80,0.00,CLR,SKC,0.06,WeatherDisplay:10.37,2013-01-14 15:56:00,
2013-01-14 11:01:00,39.7,34.1,29.24,NW,315,5.8,5.8,80,0.00,CLR,SKC,0.06,WeatherDisplay:10.37,2013-01-14 16:01:00,
2013-01-14 11:06:00,40.8,34.2,29.24,North,1,5.8,5.8,77,0.00,CLR,SKC,0.06,WeatherDisplay:10.37,2013-01-14 16:06:00,
2013-01-14 11:11:00,40.3,34.0,29.24,NW,315,8.1,8.1,78,0.00,CLR,SKC,0.06,WeatherDisplay:10.37,2013-01-14 16:11:00,
2013-01-14 11:16:00,39.9,33.9,29.24,NW,315,11.5,11.5,79,0.00,CLR,SKC,0.06,WeatherDisplay:10.37,2013-01-14 16:16:00,
2013-01-14 11:21:00,39.2,33.5,29.24,NW,315,8.1,8.1,80,0.00,CLR,SKC,0.06,WeatherDisplay:10.37,2013-01-14 16:21:00,
2013-01-14 11:26:00,39.0,33.4,29.23,NW,315,7.6,7.6,80,0.00,CLR,SKC,0.06,WeatherDisplay:10.37,2013-01-14 16:26:00,
2013-01-14 11:31:00,38.8,33.2,29.23,NW,315,6.9,6.9,80,0.00,CLR,SKC,0.06,WeatherDisplay:10.37,2013-01-14 16:31:00,
2013-01-14 11:36:00,42.1,35.1,29.23,NNE,15,10.4,10.4,76,0.00,CLR,SKC,0.06,WeatherDisplay:10.37,2013-01-14 16:36:00,
2013-01-14 11:41:00,43.2,35.8,29.23,NW,315,8.1,8.1,75,0.00,CLR,SKC,0.06,WeatherDisplay:10.37,2013-01-14 16:41:00,
2013-01-14 11:46:00,44.1,36.0,29.23,NW,315,5.8,5.8,73,0.00,CLR,SKC,0.06,WeatherDisplay:10.37,2013-01-14 16:46:00,
2013-01-14 11:51:00,46.2,37.3,29.23,SE,135,5.8,0.0,71,0.00,CLR,SKC,0.06,WeatherDisplay:10.37,2013-01-14 16:51:00,
2013-01-14 11:56:00,45.1,35.9,29.23,West,270,10.4,10.4,70,0.00,CLR,SKC,0.06,WeatherDisplay:10.37,2013-01-14 16:56:00,
2013-01-14 12:01:00,44.8,35.2,29.22,NW,315,10.4,10.4,69,0.00,CLR,SKC,0.06,WeatherDisplay:10.37,2013-01-14 17:01:00,
2013-01-14 12:06:00,45.0,35.4,29.22,NW,315,4.6,4.6,69,0.00,CLR,SKC,0.06,WeatherDisplay:10.37,2013-01-14 17:06:00,
2013-01-14 12:11:00,44.8,35.2,29.22,SE,135,5.8,5.8,69,0.00,CLR,SKC,0.06,WeatherDisplay:10.37,2013-01-14 17:11:00,
2013-01-14 12:16:00,44.8,34.9,29.22,NNE,12,6.9,6.9,68,0.00,CLR,SKC,0.06,WeatherDisplay:10.37,2013-01-14 17:16:00,
2013-01-14 12:21:00,43.2,34.0,29.22,West,270,11.5,11.5,70,0.00,CLR,SKC,0.06,WeatherDisplay:10.37,2013-01-14 17:21:00,
2013-01-14 12:26:00,42.8,34.0,29.22,NNE,14,8.1,8.1,71,0.00,CLR,SKC,0.06,WeatherDisplay:10.37,2013-01-14 17:26:00,
2013-01-14 12:31:00,42.3,33.5,29.21,NW,315,8.1,8.1,71,0.00,CLR,SKC,0.06,WeatherDisplay:10.37,2013-01-14 17:31:00,
2013-01-14 12:36:00,42.1,33.4,29.22,NW,315,8.1,8.1,71,0.00,CLR,SKC,0.06,WeatherDisplay:10.37,2013-01-14 17:36:00,
2013-01-14 12:41:00,40.8,32.5,29.22,NNE,13,6.9,6.9,72,0.00,CLR,SKC,0.06,WeatherDisplay:10.37,2013-01-14 17:41:00,
2013-01-14 12:46:00,40.5,32.1,29.21,NW,315,10.4,10.4,72,0.00,CLR,SKC,0.06,WeatherDisplay:10.37,2013-01-14 17:46:00,
2013-01-14 12:51:00,40.3,32.3,29.22,NW,315,8.1,8.1,73,0.00,CLR,SKC,0.06,WeatherDisplay:10.37,2013-01-14 17:51:00,
2013-01-14 12:56:00,41.5,33.5,29.21,South,180,3.5,3.5,73,0.00,CLR,SKC,0.06,WeatherDisplay:10.37,2013-01-14 17:56:00,
2013-01-14 13:01:00,42.4,33.7,29.20,North,0,2.3,2.3,71,0.00,CLR,SKC,0.06,WeatherDisplay:10.37,2013-01-14 18:01:00,
2013-01-14 13:06:00,43.3,34.2,29.20,NW,315,3.5,5.4,70,0.00,CLR,SKC,0.06,WeatherDisplay:10.37,2013-01-14 18:06:00,
2013-01-14 13:11:00,42.1,33.4,29.20,North,0,10.4,10.4,71,0.00,CLR,SKC,0.06,WeatherDisplay:10.37,2013-01-14 18:11:00,
2013-01-14 13:16:00,41.2,33.2,29.20,NW,315,11.5,11.5,73,0.00,CLR,SKC,0.06,WeatherDisplay:10.37,2013-01-14 18:16:00,
2013-01-14 13:21:00,40.8,33.2,29.20,NW,315,6.9,6.9,74,0.00,CLR,SKC,0.06,WeatherDisplay:10.37,2013-01-14 18:21:00,
2013-01-14 13:26:00,41.9,33.9,29.20,NW,315,8.1,8.1,73,0.00,CLR,SKC,0.06,WeatherDisplay:10.37,2013-01-14 18:26:00,
2013-01-14 13:31:00,42.4,34.0,29.19,NW,315,5.8,5.8,72,0.00,CLR,SKC,0.06,WeatherDisplay:10.37,2013-01-14 18:31:00,
2013-01-14 13:36:00,42.4,33.7,29.19,NNE,14,3.5,0.0,71,0.00,CLR,SKC,0.06,WeatherDisplay:10.37,2013-01-14 18:36:00,
2013-01-14 13:41:00,43.0,33.5,29.19,NW,315,5.8,5.8,69,0.00,CLR,SKC,0.06,WeatherDisplay:10.37,2013-01-14 18:41:00,
2013-01-14 13:46:00,43.2,33.3,29.19,North,1,3.5,3.5,68,0.00,CLR,SKC,0.06,WeatherDisplay:10.37,2013-01-14 18:46:00,
2013-01-14 13:51:00,43.5,34.4,29.19,South,180,2.3,0.0,70,0.00,CLR,SKC,0.06,WeatherDisplay:10.37,2013-01-14 18:51:00,
2013-01-14 13:56:00,43.5,34.4,29.19,South,180,2.3,0.0,70,0.00,CLR,SKC,0.06,WeatherDisplay:10.37,2013-01-14 18:56:00,
2013-01-14 14:01:00,43.5,34.0,29.19,North,0,4.6,4.6,69,0.00,CLR,SKC,0.06,WeatherDisplay:10.37,2013-01-14 19:01:00,
2013-01-14 14:06:00,43.0,33.5,29.19,North,0,5.8,5.8,69,0.00,CLR,SKC,0.06,WeatherDisplay:10.37,2013-01-14 19:06:00,
2013-01-14 14:11:00,43.0,33.5,29.19,NW,315,5.8,5.8,69,0.00,CLR,SKC,0.06,WeatherDisplay:10.37,2013-01-14 19:11:00,
2013-01-14 14:16:00,42.3,33.2,29.18,NW,315,8.1,8.1,70,0.00,CLR,SKC,0.06,WeatherDisplay:10.37,2013-01-14 19:16:00,
2013-01-14 14:21:00,42.3,33.2,29.18,East,90,4.6,4.6,70,0.00,CLR,SKC,0.06,WeatherDisplay:10.37,2013-01-14 19:21:00,
2013-01-14 14:26:00,42.1,33.4,29.16,NE,45,6.9,6.9,71,0.00,CLR,SKC,0.06,WeatherDisplay:10.37,2013-01-14 19:26:00,
2013-01-14 14:31:00,41.7,32.7,29.16,East,90,3.5,3.5,70,0.00,CLR,SKC,0.06,WeatherDisplay:10.37,2013-01-14 19:31:00,
2013-01-14 14:36:00,41.4,32.3,29.15,NE,45,10.4,10.4,70,0.00,CLR,SKC,0.06,WeatherDisplay:10.37,2013-01-14 19:36:00,
2013-01-14 14:41:00,40.5,31.8,29.14,NE,45,12.7,12.7,71,0.00,CLR,SKC,0.06,WeatherDisplay:10.37,2013-01-14 19:41:00,
2013-01-14 14:46:00,40.5,32.1,29.15,West,270,5.8,5.8,72,0.00,CLR,SKC,0.06,WeatherDisplay:10.37,2013-01-14 19:46:00,
2013-01-14 14:51:00,40.3,32.0,29.16,NE,45,6.9,6.9,72,0.00,CLR,SKC,0.06,WeatherDisplay:10.37,2013-01-14 19:51:00,
2013-01-14 14:56:00,40.3,31.6,29.16,North,0,9.2,9.2,71,0.00,CLR,SKC,0.06,WeatherDisplay:10.37,2013-01-14 19:56:00,
2013-01-14 15:01:00,40.3,31.6,29.18,NW,315,4.6,4.6,71,0.00,CLR,SKC,0.06,WeatherDisplay:10.37,2013-01-14 20:01:00,
2013-01-14 15:06:00,40.6,32.0,29.18,North,0,1.2,1.2,71,0.00,CLR,SKC,0.06,WeatherDisplay:10.37,2013-01-14 20:06:00,
2013-01-14 15:11:00,40.8,31.8,29.20,NW,315,6.9,6.9,70,0.00,CLR,SKC,0.06,WeatherDisplay:10.37,2013-01-14 20:11:00,
2013-01-14 15:16:00,40.8,31.8,29.19,West,270,5.8,5.8,70,0.00,CLR,SKC,0.06,WeatherDisplay:10.37,2013-01-14 20:16:00,
2013-01-14 15:21:00,40.5,31.1,29.19,West,270,8.1,8.1,69,0.00,CLR,SKC,0.06,WeatherDisplay:10.37,2013-01-14 20:21:00,
2013-01-14 15:26:00,40.5,31.8,29.19,NW,315,6.0,6.0,71,0.00,CLR,SKC,0.06,WeatherDisplay:10.37,2013-01-14 20:26:00,
2013-01-14 15:31:00,40.1,30.7,29.20,West,270,5.8,5.8,69,0.00,CLR,SKC,0.06,WeatherDisplay:10.37,2013-01-14 20:31:00,
2013-01-14 15:36:00,40.1,30.7,29.20,NNW,338,10.4,10.4,69,0.00,CLR,SKC,0.06,WeatherDisplay:10.37,2013-01-14 20:36:00,
2013-01-14 15:41:00,39.9,30.6,29.20,NW,315,6.9,6.9,69,0.00,CLR,SKC,0.06,WeatherDisplay:10.37,2013-01-14 20:41:00,
2013-01-14 15:47:00,39.9,31.3,29.20,North,0,5.8,5.8,71,0.00,CLR,SKC,0.06,WeatherDisplay:10.37,2013-01-14 20:47:00,
2013-01-14 15:52:00,39.9,32.0,29.21,NW,315,8.1,8.1,73,0.00,CLR,SKC,0.06,WeatherDisplay:10.37,2013-01-14 20:52:00,
2013-01-14 15:57:00,39.4,31.8,29.21,NW,315,9.2,9.2,74,0.00,CLR,SKC,0.06,WeatherDisplay:10.37,2013-01-14 20:57:00,
2013-01-14 16:02:00,39.2,31.9,29.21,NW,315,10.4,10.4,75,0.00,CLR,SKC,0.06,WeatherDisplay:10.37,2013-01-14 21:02:00,
2013-01-14 16:07:00,38.8,31.6,29.21,NNW,338,10.4,10.4,75,0.00,CLR,SKC,0.06,WeatherDisplay:10.37,2013-01-14 21:07:00,
2013-01-14 16:12:00,38.5,31.6,29.22,WNW,292,8.1,8.1,76,0.00,CLR,SKC,0.06,WeatherDisplay:10.37,2013-01-14 21:12:00,
2013-01-14 16:17:00,38.3,31.1,29.22,North,0,10.4,10.4,75,0.00,CLR,SKC,0.06,WeatherDisplay:10.37,2013-01-14 21:17:00,
2013-01-14 16:22:00,37.9,31.0,29.23,NW,315,10.4,10.4,76,0.00,CLR,SKC,0.06,WeatherDisplay:10.37,2013-01-14 21:22:00,
2013-01-14 16:27:00,37.8,31.2,29.23,NW,315,8.1,8.1,77,0.00,CLR,SKC,0.06,WeatherDisplay:10.37,2013-01-14 21:27:00,
2013-01-14 16:32:00,37.6,31.0,29.24,NW,315,9.2,9.2,77,0.00,CLR,SKC,0.06,WeatherDisplay:10.37,2013-01-14 21:32:00,
2013-01-14 16:37:00,37.4,30.8,29.24,NW,315,10.4,10.4,77,0.00,CLR,SKC,0.06,WeatherDisplay:10.37,2013-01-14 21:37:00,
2013-01-14 16:42:00,37.0,30.2,29.23,North,0,15.0,15.0,76,0.00,CLR,SKC,0.06,WeatherDisplay:10.37,2013-01-14 21:42:00,
2013-01-14 16:47:00,36.9,30.3,29.23,NE,45,8.1,8.1,77,0.00,CLR,SKC,0.06,WeatherDisplay:10.37,2013-01-14 21:47:00,
2013-01-14 16:52:00,36.7,29.8,29.22,NE,45,10.4,10.4,76,0.00,CLR,SKC,0.06,WeatherDisplay:10.37,2013-01-14 21:52:00,
2013-01-14 16:57:00,36.3,29.8,29.22,NW,315,10.4,10.4,77,0.00,CLR,SKC,0.06,WeatherDisplay:10.37,2013-01-14 21:57:00,
2013-01-14 17:02:00,36.1,29.6,29.22,North,0,8.1,8.1,77,0.00,CLR,SKC,0.06,WeatherDisplay:10.37,2013-01-14 22:02:00,
2013-01-14 17:07:00,36.0,29.4,29.24,NW,315,6.9,6.9,77,0.00,CLR,SKC,0.06,WeatherDisplay:10.37,2013-01-14 22:07:00,
2013-01-14 17:12:00,36.0,29.8,29.24,North,0,8.1,8.1,78,0.00,CLR,SKC,0.06,WeatherDisplay:10.37,2013-01-14 22:12:00,
2013-01-14 17:17:00,35.6,29.4,29.25,North,0,3.5,3.5,78,0.00,CLR,SKC,0.06,WeatherDisplay:10.37,2013-01-14 22:17:00,
2013-01-14 17:22:00,35.6,29.1,29.24,NW,315,8.1,8.1,77,0.00,CLR,SKC,0.06,WeatherDisplay:10.37,2013-01-14 22:22:00,
2013-01-14 17:27:00,35.4,28.9,29.24,NW,315,10.4,10.4,77,0.00,CLR,SKC,0.06,WeatherDisplay:10.37,2013-01-14 22:27:00,
2013-01-14 17:32:00,35.2,29.1,29.25,NW,315,5.8,5.8,78,0.00,CLR,SKC,0.06,WeatherDisplay:10.37,2013-01-14 22:32:00,
2013-01-14 17:37:00,35.2,28.8,29.25,NW,315,10.4,10.4,77,0.00,CLR,SKC,0.06,WeatherDisplay:10.37,2013-01-14 22:37:00,
2013-01-14 17:42:00,35.2,28.4,29.27,NW,315,5.8,5.8,76,0.00,CLR,SKC,0.06,WeatherDisplay:10.37,2013-01-14 22:42:00,
2013-01-14 17:47:00,35.2,28.4,29.28,NW,315,8.1,8.1,76,0.00,CLR,SKC,0.06,WeatherDisplay:10.37,2013-01-14 22:47:00,
2013-01-14 17:52:00,35.2,28.4,29.28,NW,315,5.8,5.8,76,0.00,CLR,SKC,0.06,WeatherDisplay:10.37,2013-01-14 22:52:00,
2013-01-14 17:57:00,35.1,28.3,29.29,NW,315,8.1,8.1,76,0.00,CLR,SKC,0.06,WeatherDisplay:10.37,2013-01-14 22:57:00,
2013-01-14 18:02:00,35.1,28.3,29.29,NW,315,10.4,10.4,76,0.00,CLR,SKC,0.06,WeatherDisplay:10.37,2013-01-14 23:02:00,
2013-01-14 18:07:00,35.1,28.6,29.29,NW,315,6.9,6.9,77,0.00,CLR,SKC,0.06,WeatherDisplay:10.37,2013-01-14 23:07:00,
2013-01-14 18:12:00,34.9,28.4,29.29,NW,315,6.9,6.9,77,0.00,CLR,SKC,0.06,WeatherDisplay:10.37,2013-01-14 23:12:00,
2013-01-14 18:17:00,34.9,28.4,29.29,North,0,8.1,8.1,77,0.00,CLR,SKC,0.06,WeatherDisplay:10.37,2013-01-14 23:17:00,
2013-01-14 18:22:00,34.9,28.4,29.29,NW,315,6.9,6.9,77,0.00,CLR,SKC,0.06,WeatherDisplay:10.37,2013-01-14 23:22:00,
2013-01-14 18:27:00,34.9,28.7,29.28,NW,315,3.5,3.5,78,0.00,CLR,SKC,0.06,WeatherDisplay:10.37,2013-01-14 23:27:00,
2013-01-14 18:32:00,34.7,28.5,29.28,West,270,6.9,6.9,78,0.00,CLR,SKC,0.06,WeatherDisplay:10.37,2013-01-14 23:32:00,
2013-01-14 18:37:00,34.5,28.1,29.28,NW,315,6.9,6.9,77,0.00,CLR,SKC,0.06,WeatherDisplay:10.37,2013-01-14 23:37:00,
2013-01-14 18:42:00,34.3,27.9,29.28,NW,315,8.1,8.1,77,0.00,CLR,SKC,0.06,WeatherDisplay:10.37,2013-01-14 23:42:00,
2013-01-14 18:47:00,34.2,27.7,29.28,NW,315,11.5,11.5,77,0.00,CLR,SKC,0.06,WeatherDisplay:10.37,2013-01-14 23:47:00,
2013-01-14 18:52:00,34.2,28.0,29.28,NW,315,10.4,10.4,78,0.00,CLR,SKC,0.06,WeatherDisplay:10.37,2013-01-14 23:52:00,
2013-01-14 18:57:00,34.5,28.7,29.28,North,0,9.2,9.2,79,0.00,CLR,SKC,0.06,WeatherDisplay:10.37,2013-01-14 23:57:00,
2013-01-14 19:02:00,33.8,28.0,29.28,NW,315,12.7,12.7,79,0.00,CLR,SKC,0.06,WeatherDisplay:10.37,2013-01-15 00:02:00,
2013-01-14 19:07:00,33.4,27.9,29.28,NW,315,10.4,10.4,80,0.00,CLR,SKC,0.06,WeatherDisplay:10.37,2013-01-15 00:07:00,
2013-01-14 19:12:00,33.4,28.2,29.28,NW,315,6.9,6.9,81,0.00,CLR,SKC,0.06,WeatherDisplay:10.37,2013-01-15 00:12:00,
2013-01-14 19:17:00,33.4,28.2,29.28,NW,315,5.8,5.8,81,0.00,CLR,SKC,0.06,WeatherDisplay:10.37,2013-01-15 00:17:00,
2013-01-14 19:22:00,33.1,28.2,29.28,NW,315,6.9,6.9,82,0.00,CLR,SKC,0.06,WeatherDisplay:10.37,2013-01-15 00:22:00,
2013-01-14 19:27:00,32.9,27.7,29.27,North,0,6.9,6.9,81,0.00,CLR,SKC,0.06,WeatherDisplay:10.37,2013-01-15 00:27:00,
2013-01-14 19:32:00,32.7,27.5,29.28,NW,315,8.1,8.1,81,0.00,CLR,SKC,0.06,WeatherDisplay:10.37,2013-01-15 00:32:00,
2013-01-14 19:37:00,32.7,27.5,29.29,NW,315,12.7,12.7,81,0.00,CLR,SKC,0.06,WeatherDisplay:10.37,2013-01-15 00:37:00,
2013-01-14 19:42:00,32.5,27.4,29.29,NW,315,9.2,9.2,81,0.00,CLR,SKC,0.06,WeatherDisplay:10.37,2013-01-15 00:42:00,
2013-01-14 19:47:00,32.5,27.4,29.29,NW,315,5.8,5.8,81,0.00,CLR,SKC,0.06,WeatherDisplay:10.37,2013-01-15 00:47:00,
2013-01-14 19:52:00,32.5,27.4,29.29,NW,315,5.8,5.8,81,0.00,CLR,SKC,0.06,WeatherDisplay:10.37,2013-01-15 00:52:00,
2013-01-14 19:57:00,32.4,27.2,29.29,North,0,5.8,5.8,81,0.00,CLR,SKC,0.06,WeatherDisplay:10.37,2013-01-15 00:57:00,
2013-01-14 20:02:00,32.4,27.5,29.30,NW,315,3.5,3.5,82,0.00,CLR,SKC,0.06,WeatherDisplay:10.37,2013-01-15 01:02:00,
2013-01-14 20:07:00,32.4,27.5,29.29,NW,315,3.5,3.5,82,0.00,CLR,SKC,0.06,WeatherDisplay:10.37,2013-01-15 01:07:00,
2013-01-14 20:12:00,32.2,27.0,29.30,NW,315,5.8,5.8,81,0.00,CLR,SKC,0.06,WeatherDisplay:10.37,2013-01-15 01:12:00,
2013-01-14 20:17:00,32.2,27.0,29.29,NW,315,4.6,4.6,81,0.00,CLR,SKC,0.06,WeatherDisplay:10.37,2013-01-15 01:17:00,
2013-01-14 20:22:00,32.2,27.0,29.29,NW,315,3.5,3.5,81,0.00,CLR,SKC,0.06,WeatherDisplay:10.37,2013-01-15 01:22:00,
2013-01-14 20:27:00,32.0,26.8,29.29,NW,315,3.5,0.0,81,0.00,CLR,SKC,0.06,WeatherDisplay:10.37,2013-01-15 01:27:00,
2013-01-14 20:32:00,32.0,27.1,29.28,NE,45,3.5,0.0,82,0.00,CLR,SKC,0.06,WeatherDisplay:10.37,2013-01-15 01:32:00,
2013-01-14 20:37:00,32.0,27.1,29.28,NE,45,3.5,3.5,82,0.00,CLR,SKC,0.06,WeatherDisplay:10.37,2013-01-15 01:37:00,
2013-01-14 20:42:00,32.0,26.8,29.28,NE,45,2.3,0.0,81,0.00,CLR,SKC,0.06,WeatherDisplay:10.37,2013-01-15 01:42:00,
2013-01-14 20:47:00,32.0,27.1,29.28,North,0,1.2,0.0,82,0.00,CLR,SKC,0.06,WeatherDisplay:10.37,2013-01-15 01:47:00,
2013-01-14 20:52:00,31.8,26.7,29.27,NE,45,4.6,4.6,81,0.00,CLR,SKC,0.06,WeatherDisplay:10.37,2013-01-15 01:52:00,
2013-01-14 20:57:00,31.8,26.7,29.26,NE,45,3.5,3.5,81,0.00,CLR,SKC,0.06,WeatherDisplay:10.37,2013-01-15 01:57:00,
2013-01-14 21:02:00,31.8,26.7,29.26,NE,45,3.8,3.8,81,0.00,CLR,SKC,0.06,WeatherDisplay:10.37,2013-01-15 02:02:00,
2013-01-14 21:07:00,31.8,26.7,29.26,NE,45,3.5,3.5,81,0.00,CLR,SKC,0.06,WeatherDisplay:10.37,2013-01-15 02:07:00,
2013-01-14 21:12:00,31.8,27.0,29.25,North,0,1.2,1.6,82,0.00,CLR,SKC,0.06,WeatherDisplay:10.37,2013-01-15 02:12:00,
2013-01-14 21:17:00,31.8,27.0,29.25,North,0,3.5,3.5,82,0.00,CLR,SKC,0.06,WeatherDisplay:10.37,2013-01-15 02:17:00,
2013-01-14 21:22:00,31.8,27.0,29.25,North,0,5.8,5.8,82,0.00,CLR,SKC,0.06,WeatherDisplay:10.37,2013-01-15 02:22:00,
2013-01-14 21:27:00,31.6,26.8,29.25,NW,315,4.6,4.6,82,0.00,CLR,SKC,0.06,WeatherDisplay:10.37,2013-01-15 02:27:00,
2013-01-14 21:32:00,31.6,27.1,29.25,NW,315,0.0,0.0,83,0.00,CLR,SKC,0.06,WeatherDisplay:10.37,2013-01-15 02:32:00,
2013-01-14 21:37:00,31.6,27.1,29.25,NW,315,0.0,0.0,83,0.00,CLR,SKC,0.06,WeatherDisplay:10.37,2013-01-15 02:37:00,
2013-01-14 21:42:00,31.6,27.1,29.25,NW,315,0.0,0.0,83,0.00,CLR,SKC,0.06,WeatherDisplay:10.37,2013-01-15 02:42:00,
2013-01-14 21:47:00,31.6,27.1,29.25,NW,315,5.8,5.8,83,0.00,CLR,SKC,0.06,WeatherDisplay:10.37,2013-01-15 02:47:00,
2013-01-14 21:52:00,31.6,27.1,29.26,North,0,8.1,8.1,83,0.00,CLR,SKC,0.06,WeatherDisplay:10.37,2013-01-15 02:52:00,
2013-01-14 21:57:00,31.5,27.2,29.26,NW,315,9.8,9.8,84,0.00,CLR,SKC,0.06,WeatherDisplay:10.37,2013-01-15 02:57:00,
2013-01-14 22:02:00,31.6,27.4,29.26,NW,315,10.4,10.4,84,0.00,CLR,SKC,0.06,WeatherDisplay:10.37,2013-01-15 03:02:00,
2013-01-14 22:07:00,31.6,27.4,29.25,NW,315,10.4,10.4,84,0.00,CLR,SKC,0.06,WeatherDisplay:10.37,2013-01-15 03:07:00,
2013-01-14 22:12:00,31.5,26.9,29.28,NW,315,11.5,11.5,83,0.00,CLR,SKC,0.06,WeatherDisplay:10.37,2013-01-15 03:12:00,
2013-01-14 22:17:00,31.3,26.7,29.27,North,0,15.0,15.0,83,0.00,CLR,SKC,0.06,WeatherDisplay:10.37,2013-01-15 03:17:00,
2013-01-14 22:22:00,31.3,26.7,29.26,North,0,8.1,8.1,83,0.00,CLR,SKC,0.06,WeatherDisplay:10.37,2013-01-15 03:22:00,
2013-01-14 22:27:00,31.3,26.7,29.28,NNW,338,8.1,8.1,83,0.00,CLR,SKC,0.06,WeatherDisplay:10.37,2013-01-15 03:27:00,
2013-01-14 22:32:00,31.1,26.5,29.26,North,0,5.8,5.8,83,0.00,CLR,SKC,0.06,WeatherDisplay:10.37,2013-01-15 03:32:00,
2013-01-14 22:37:00,31.1,26.5,29.26,NE,45,5.8,5.8,83,0.00,CLR,SKC,0.06,WeatherDisplay:10.37,2013-01-15 03:37:00,
2013-01-14 22:42:00,31.1,26.5,29.26,North,0,4.6,4.6,83,0.00,CLR,SKC,0.06,WeatherDisplay:10.37,2013-01-15 03:42:00,
2013-01-14 22:47:00,31.1,26.5,29.25,East,90,4.6,4.6,83,0.00,CLR,SKC,0.06,WeatherDisplay:10.37,2013-01-15 03:47:00,
2013-01-14 22:52:00,31.1,26.5,29.24,NE,45,4.6,4.6,83,0.00,CLR,SKC,0.06,WeatherDisplay:10.37,2013-01-15 03:52:00,
2013-01-14 22:57:00,31.1,26.8,29.24,NE,45,3.5,3.5,84,0.00,CLR,SKC,0.06,WeatherDisplay:10.37,2013-01-15 03:57:00,
2013-01-14 23:02:00,30.9,26.7,29.24,NE,45,5.8,0.0,84,0.00,CLR,SKC,0.06,WeatherDisplay:10.37,2013-01-15 04:02:00,
2013-01-14 23:07:00,30.9,26.7,29.22,NE,45,1.2,0.0,84,0.00,CLR,SKC,0.06,WeatherDisplay:10.37,2013-01-15 04:07:00,
2013-01-14 23:12:00,30.9,26.7,29.20,NE,45,5.8,5.8,84,0.00,CLR,SKC,0.06,WeatherDisplay:10.37,2013-01-15 04:12:00,
2013-01-14 23:17:00,30.9,26.7,29.20,NE,45,8.1,8.1,84,0.00,CLR,SKC,0.06,WeatherDisplay:10.37,2013-01-15 04:17:00,
2013-01-14 23:22:00,30.9,26.7,29.20,East,90,5.8,5.8,84,0.00,CLR,SKC,0.06,WeatherDisplay:10.37,2013-01-15 04:22:00,
2013-01-14 23:27:00,30.9,26.7,29.20,North,0,10.4,10.4,84,0.00,CLR,SKC,0.06,WeatherDisplay:10.37,2013-01-15 04:27:00,
2013-01-14 23:32:00,30.9,26.7,29.21,East,90,4.6,4.6,84,0.00,CLR,SKC,0.06,WeatherDisplay:10.37,2013-01-15 04:32:00,
2013-01-14 23:37:00,30.7,26.2,29.20,North,0,8.1,8.1,83,0.00,CLR,SKC,0.06,WeatherDisplay:10.37,2013-01-15 04:37:00,
2013-01-14 23:42:00,30.7,26.2,29.21,NE,45,5.8,5.8,83,0.00,CLR,SKC,0.06,WeatherDisplay:10.37,2013-01-15 04:42:00,
2013-01-14 23:47:00,30.9,26.4,29.21,NE,45,4.6,4.6,83,0.00,CLR,SKC,0.06,WeatherDisplay:10.37,2013-01-15 04:47:00,
2013-01-14 23:52:00,30.9,26.4,29.22,North,0,8.1,8.1,83,0.00,CLR,SKC,0.06,WeatherDisplay:10.37,2013-01-15 04:52:00,
2013-01-14 23:57:00,30.7,26.2,29.22,North,0,4.6,4.6,83,0.00,CLR,SKC,0.06,WeatherDisplay:10.37,2013-01-15 04:57:00,